Terminal Aerodrome Forecast
Issued by NWS Chicago, IL

Home | Current Version | Previous Version | Graphics & Text | Print | Product List | Glossary On
Versions: 1 2 3 4 5 6 7 8 9 10 11 12 13 14 15 16 17 18 19 20 21 22 23 24 25
893
FTUS43 KLOT 171458 AAA
TAFRFD
TAF AMD
KRFD 171458Z 1715/1812 27005KT P6SM SCT100 BKN250
     FM171600 32008KT P6SM SCT015 BKN035
     FM172100 34008KT P6SM SCT180 BKN250
     FM180100 02007KT P6SM SCT180 BKN250=

USA.gov is the U.S. government's official web portal to all federal, state and local government web resources and services.